createdAt,value
2017-06-18T00:00:37.520Z,0
2017-06-18T00:01:18.060Z,0
2017-06-18T00:01:58.590Z,0
2017-06-18T00:02:39.139Z,0
2017-06-18T00:03:19.697Z,0
2017-06-18T00:04:00.246Z,0
2017-06-18T00:04:40.791Z,0
2017-06-18T00:05:21.341Z,0
2017-06-18T00:06:01.889Z,0
2017-06-18T00:06:42.439Z,0
2017-06-18T00:07:22.977Z,0
2017-06-18T00:08:03.508Z,0
2017-06-18T00:08:44.050Z,0
2017-06-18T00:09:24.579Z,0
2017-06-18T00:10:05.132Z,0
2017-06-18T00:10:45.681Z,0
2017-06-18T00:11:26.237Z,0
2017-06-18T00:12:06.783Z,0
2017-06-18T00:12:47.317Z,0
2017-06-18T00:13:27.848Z,0
2017-06-18T00:14:08.398Z,0
2017-06-18T00:14:48.947Z,0
2017-06-18T00:15:29.475Z,0
2017-06-18T00:16:10.017Z,0
2017-06-18T00:16:50.559Z,0
2017-06-18T00:17:31.098Z,0
2017-06-18T00:18:11.639Z,0
2017-06-18T00:18:52.184Z,0
2017-06-18T00:19:32.732Z,0
2017-06-18T00:20:13.270Z,0
2017-06-18T00:20:53.814Z,0
2017-06-18T00:21:34.351Z,0
2017-06-18T00:23:53.715Z,0
2017-06-18T00:24:34.249Z,0
2017-06-18T00:25:14.786Z,0
2017-06-18T00:25:55.321Z,0
2017-06-18T00:26:35.864Z,0
2017-06-18T00:27:16.417Z,0
2017-06-18T00:27:56.953Z,0
2017-06-18T00:28:37.492Z,0
2017-06-18T00:29:18.032Z,0
2017-06-18T00:29:58.574Z,0
2017-06-18T00:30:39.118Z,0
2017-06-18T00:31:19.658Z,0
2017-06-18T00:32:00.196Z,0
2017-06-18T00:32:40.732Z,0
2017-06-18T00:33:21.269Z,0
2017-06-18T00:34:01.819Z,0
2017-06-18T00:34:42.345Z,0
2017-06-18T00:35:22.883Z,0
2017-06-18T00:36:03.428Z,0
2017-06-18T00:36:43.980Z,0
2017-06-18T00:37:24.515Z,0
2017-06-18T00:38:05.062Z,0
2017-06-18T00:38:45.595Z,0
2017-06-18T00:39:26.135Z,0
2017-06-18T00:40:06.680Z,0
2017-06-18T00:40:47.226Z,0
2017-06-18T00:41:27.774Z,0
2017-06-18T00:42:08.323Z,0
2017-06-18T00:42:48.866Z,0
2017-06-18T00:43:29.395Z,0
2017-06-18T00:44:09.984Z,0
2017-06-18T00:44:50.531Z,0
2017-06-18T00:45:31.064Z,0
2017-06-18T00:46:11.615Z,0
2017-06-18T00:46:52.147Z,0
2017-06-18T00:47:32.694Z,0
2017-06-18T00:48:13.233Z,0
2017-06-18T00:48:53.792Z,0
2017-06-18T00:49:34.326Z,0
2017-06-18T00:50:14.868Z,0
2017-06-18T00:50:55.406Z,0
2017-06-18T00:51:35.946Z,0
2017-06-18T00:52:16.579Z,0
2017-06-18T00:52:57.120Z,0
2017-06-18T00:53:37.650Z,0
2017-06-18T00:54:18.188Z,0
2017-06-18T00:54:58.714Z,0
2017-06-18T00:55:39.265Z,0
2017-06-18T00:56:19.808Z,0
2017-06-18T00:57:00.367Z,0
2017-06-18T00:57:40.915Z,0
2017-06-18T00:58:21.458Z,0
2017-06-18T00:59:02.002Z,0
2017-06-18T00:59:42.548Z,0
2017-06-18T01:00:23.097Z,0
2017-06-18T01:01:03.641Z,0
2017-06-18T01:01:44.189Z,0
2017-06-18T01:02:24.727Z,0
2017-06-18T01:03:05.265Z,0
2017-06-18T01:03:45.803Z,0
2017-06-18T01:04:26.336Z,0
2017-06-18T01:05:06.879Z,0
2017-06-18T01:05:47.429Z,0
2017-06-18T01:06:27.971Z,0
2017-06-18T01:07:08.524Z,0
2017-06-18T01:07:49.071Z,0
2017-06-18T01:08:29.612Z,0
2017-06-18T01:09:10.158Z,0
2017-06-18T01:09:50.707Z,0
2017-06-18T01:10:31.258Z,0
2017-06-18T01:11:11.812Z,0
2017-06-18T01:11:52.410Z,0
2017-06-18T01:12:32.955Z,0
2017-06-18T01:13:13.475Z,0
2017-06-18T01:13:54.022Z,0
2017-06-18T01:14:34.572Z,0
2017-06-18T01:15:15.119Z,0
2017-06-18T01:15:55.639Z,0
2017-06-18T01:16:36.198Z,0
2017-06-18T01:17:16.742Z,0
2017-06-18T01:17:57.301Z,0
2017-06-18T01:18:37.839Z,0
2017-06-18T01:19:18.391Z,0
2017-06-18T01:19:58.938Z,0
2017-06-18T01:20:39.480Z,0
2017-06-18T01:21:20.019Z,0
2017-06-18T01:22:00.547Z,0
2017-06-18T01:22:41.087Z,0
2017-06-18T01:23:21.628Z,0
2017-06-18T01:24:02.178Z,0
2017-06-18T01:24:42.732Z,0
2017-06-18T01:25:23.277Z,0
2017-06-18T01:26:03.828Z,0
2017-06-18T01:26:44.380Z,0
2017-06-18T01:27:24.932Z,0
2017-06-18T01:28:05.480Z,0
2017-06-18T01:28:46.022Z,0
2017-06-18T01:29:26.562Z,0
2017-06-18T01:30:07.120Z,0
2017-06-18T01:30:47.665Z,0
2017-06-18T01:31:28.201Z,0
2017-06-18T01:32:08.752Z,0
2017-06-18T01:32:49.299Z,0
2017-06-18T01:33:29.841Z,0
2017-06-18T01:34:10.372Z,0
2017-06-18T01:34:50.907Z,0
2017-06-18T01:35:31.440Z,0
2017-06-18T01:36:11.987Z,0
2017-06-18T01:36:52.531Z,0
2017-06-18T01:37:33.082Z,0
2017-06-18T01:38:13.624Z,0
2017-06-18T01:38:54.173Z,0
2017-06-18T01:39:34.718Z,0
2017-06-18T01:40:15.265Z,0
2017-06-18T01:40:55.820Z,0
2017-06-18T01:41:36.362Z,0
2017-06-18T01:42:16.912Z,0
2017-06-18T01:42:57.462Z,0
2017-06-18T01:43:37.999Z,0
2017-06-18T01:44:18.539Z,0
2017-06-18T01:44:59.075Z,0
2017-06-18T01:45:39.613Z,0
2017-06-18T01:46:20.158Z,0
2017-06-18T01:47:00.703Z,0
2017-06-18T01:47:41.254Z,0
2017-06-18T01:48:21.804Z,0
2017-06-18T01:49:02.355Z,0
2017-06-18T01:49:42.902Z,0
2017-06-18T01:50:23.446Z,0
2017-06-18T01:51:03.993Z,0
2017-06-18T01:51:44.533Z,0
2017-06-18T01:52:25.086Z,0
2017-06-18T01:53:05.633Z,0
2017-06-18T01:53:46.188Z,0
2017-06-18T01:54:26.720Z,0
2017-06-18T01:55:07.273Z,0
2017-06-18T01:55:47.809Z,0
2017-06-18T01:56:28.353Z,0
2017-06-18T01:57:08.894Z,0
2017-06-18T01:57:49.434Z,0
2017-06-18T01:58:29.977Z,0
2017-06-18T01:59:10.518Z,0
2017-06-18T01:59:51.062Z,0
2017-06-18T02:00:31.606Z,0
2017-06-18T02:01:12.149Z,0
2017-06-18T02:01:52.693Z,0
2017-06-18T02:02:33.233Z,0
2017-06-18T02:03:13.783Z,0
2017-06-18T02:03:54.331Z,0
2017-06-18T02:04:34.881Z,0
2017-06-18T02:05:15.427Z,0
2017-06-18T02:05:55.968Z,0
2017-06-18T02:06:36.515Z,0
2017-06-18T02:07:17.056Z,0
2017-06-18T02:07:57.599Z,0
2017-06-18T02:08:38.146Z,0
2017-06-18T02:09:18.690Z,0
2017-06-18T02:09:59.239Z,0
2017-06-18T02:10:39.781Z,0
2017-06-18T02:11:20.327Z,0
2017-06-18T02:12:00.866Z,0
2017-06-18T02:12:41.407Z,0
2017-06-18T02:13:21.962Z,0
2017-06-18T02:14:02.515Z,0
2017-06-18T02:14:43.095Z,0
2017-06-18T02:15:23.637Z,0
2017-06-18T02:16:04.183Z,0
2017-06-18T02:16:44.737Z,0
2017-06-18T02:17:25.284Z,0
2017-06-18T02:18:05.826Z,0
2017-06-18T02:18:46.368Z,0
2017-06-18T02:19:26.895Z,0
2017-06-18T02:20:07.439Z,0
2017-06-18T02:20:47.982Z,0
2017-06-18T02:21:28.526Z,0
2017-06-18T02:22:09.069Z,0
2017-06-18T02:22:49.605Z,0
2017-06-18T02:23:30.174Z,0
2017-06-18T02:24:10.691Z,0
2017-06-18T02:24:51.234Z,0
2017-06-18T02:25:31.795Z,0
2017-06-18T02:26:12.332Z,0
2017-06-18T02:26:52.873Z,0
2017-06-18T02:27:33.417Z,0
2017-06-18T02:28:13.950Z,0
2017-06-18T02:28:54.497Z,0
2017-06-18T02:29:35.030Z,0
2017-06-18T02:30:15.569Z,0
2017-06-18T02:30:56.102Z,0
2017-06-18T02:31:36.645Z,0
2017-06-18T02:32:17.190Z,0
2017-06-18T02:32:57.723Z,0
2017-06-18T02:33:38.272Z,0
2017-06-18T02:34:18.820Z,0
2017-06-18T02:34:59.368Z,0
2017-06-18T02:35:39.913Z,0
2017-06-18T02:36:20.456Z,0
2017-06-18T02:37:01.007Z,0
2017-06-18T02:37:41.529Z,0
2017-06-18T02:38:22.070Z,0
2017-06-18T02:39:02.615Z,0
2017-06-18T02:39:43.150Z,0
2017-06-18T02:40:23.686Z,0
2017-06-18T02:41:04.232Z,4
2017-06-18T02:41:44.768Z,4
2017-06-18T02:42:25.316Z,4
2017-06-18T02:43:05.854Z,4
2017-06-18T02:43:46.397Z,0
2017-06-18T02:44:26.937Z,0
2017-06-18T02:45:07.469Z,0
2017-06-18T02:45:48.015Z,4
2017-06-18T02:46:28.555Z,4
2017-06-18T02:47:09.079Z,4
2017-06-18T02:47:49.630Z,4
2017-06-18T02:48:30.157Z,4
2017-06-18T02:49:10.691Z,4
2017-06-18T02:49:51.229Z,8
2017-06-18T02:50:31.763Z,4
2017-06-18T02:51:12.311Z,4
2017-06-18T02:51:52.855Z,8
2017-06-18T02:52:33.397Z,4
2017-06-18T02:53:13.946Z,8
2017-06-18T02:53:54.486Z,12
2017-06-18T02:54:35.021Z,8
2017-06-18T02:55:15.556Z,12
2017-06-18T02:55:56.081Z,12
2017-06-18T02:56:36.625Z,12
2017-06-18T02:57:17.177Z,12
2017-06-18T02:57:57.724Z,16
2017-06-18T02:58:38.275Z,16
2017-06-18T02:59:18.831Z,16
2017-06-18T02:59:59.363Z,20
2017-06-18T03:00:39.904Z,20
2017-06-18T03:01:20.437Z,20
2017-06-18T03:02:00.971Z,24
2017-06-18T03:02:41.494Z,24
2017-06-18T03:03:22.032Z,24
2017-06-18T03:04:02.584Z,28
2017-06-18T03:04:43.120Z,28
2017-06-18T03:05:23.645Z,32
2017-06-18T03:06:04.186Z,32
2017-06-18T03:06:44.729Z,36
2017-06-18T03:07:25.269Z,40
2017-06-18T03:08:05.807Z,44
2017-06-18T03:08:46.347Z,48
2017-06-18T03:09:26.880Z,48
2017-06-18T03:10:07.415Z,52
2017-06-18T03:10:47.962Z,56
2017-06-18T03:11:28.510Z,60
2017-06-18T03:12:09.077Z,60
2017-06-18T03:12:49.596Z,64
2017-06-18T03:13:30.147Z,72
2017-06-18T03:14:10.677Z,72
2017-06-18T03:14:51.219Z,80
2017-06-18T03:15:31.744Z,80
2017-06-18T03:16:12.306Z,84
2017-06-18T03:16:52.868Z,92
2017-06-18T03:17:33.405Z,92
2017-06-18T03:18:13.947Z,96
2017-06-18T03:18:54.493Z,104
2017-06-18T03:19:35.035Z,108
2017-06-18T03:20:15.583Z,116
2017-06-18T03:20:56.141Z,120
2017-06-18T03:21:36.665Z,124
2017-06-18T03:22:17.204Z,132
2017-06-18T03:22:57.745Z,136
2017-06-18T03:23:38.292Z,144
2017-06-18T03:24:18.843Z,148
2017-06-18T03:24:59.381Z,156
2017-06-18T03:25:39.919Z,160
2017-06-18T03:26:20.468Z,164
2017-06-18T03:27:01.017Z,172
2017-06-18T03:27:41.556Z,180
2017-06-18T03:28:22.083Z,184
2017-06-18T03:29:02.622Z,192
2017-06-18T03:29:43.168Z,200
2017-06-18T03:30:23.708Z,204
2017-06-18T03:31:04.230Z,212
2017-06-18T03:31:44.767Z,224
2017-06-18T03:32:25.312Z,232
2017-06-18T03:33:05.872Z,236
2017-06-18T03:33:46.425Z,244
2017-06-18T03:34:26.967Z,252
2017-06-18T03:35:07.515Z,256
2017-06-18T03:35:48.064Z,268
2017-06-18T03:36:28.606Z,276
2017-06-18T03:37:09.151Z,284
2017-06-18T03:37:49.694Z,292
2017-06-18T03:38:30.232Z,296
2017-06-18T03:39:10.783Z,308
2017-06-18T03:39:51.317Z,312
2017-06-18T03:40:31.852Z,324
2017-06-18T03:41:12.393Z,332
2017-06-18T03:41:52.934Z,340
2017-06-18T03:42:33.475Z,348
2017-06-18T03:43:14.019Z,356
2017-06-18T03:43:54.562Z,364
2017-06-18T03:44:35.096Z,372
2017-06-18T03:45:15.638Z,384
2017-06-18T03:45:56.182Z,388
2017-06-18T03:46:36.717Z,400
2017-06-18T03:47:17.248Z,404
2017-06-18T03:47:57.781Z,416
2017-06-18T03:48:38.330Z,424
2017-06-18T03:49:18.876Z,428
2017-06-18T03:49:59.426Z,440
2017-06-18T03:50:39.989Z,448
2017-06-18T03:51:20.540Z,456
2017-06-18T03:52:01.085Z,464
2017-06-18T03:52:41.632Z,472
2017-06-18T03:53:22.186Z,480
2017-06-18T03:54:02.727Z,488
2017-06-18T03:54:43.280Z,496
2017-06-18T03:55:23.828Z,500
2017-06-18T03:56:04.365Z,512
2017-06-18T03:56:44.904Z,516
2017-06-18T03:57:25.445Z,528
2017-06-18T03:58:05.981Z,536
2017-06-18T03:58:46.550Z,544
2017-06-18T03:59:27.066Z,552
2017-06-18T04:00:07.602Z,560
2017-06-18T04:00:48.141Z,572
2017-06-18T04:01:28.693Z,576
2017-06-18T04:02:09.234Z,584
2017-06-18T04:02:49.785Z,596
2017-06-18T04:03:30.334Z,600
2017-06-18T04:04:10.884Z,612
2017-06-18T04:04:51.431Z,616
2017-06-18T04:05:31.980Z,624
2017-06-18T04:06:12.562Z,632
2017-06-18T04:06:53.107Z,644
2017-06-18T04:07:33.649Z,648
2017-06-18T04:08:14.199Z,656
2017-06-18T04:08:54.753Z,664
2017-06-18T04:09:35.304Z,672
2017-06-18T04:10:15.853Z,684
2017-06-18T04:10:56.402Z,688
2017-06-18T04:11:36.948Z,700
2017-06-18T04:12:17.496Z,708
2017-06-18T04:12:58.049Z,716
2017-06-18T04:13:38.610Z,720
2017-06-18T04:14:19.157Z,728
2017-06-18T04:14:59.699Z,736
2017-06-18T04:15:40.240Z,744
2017-06-18T04:16:20.781Z,748
2017-06-18T04:17:01.334Z,760
2017-06-18T04:17:41.887Z,768
2017-06-18T04:18:22.426Z,776
2017-06-18T04:19:02.969Z,784
2017-06-18T04:19:43.497Z,792
2017-06-18T04:20:24.037Z,796
2017-06-18T04:21:04.606Z,804
2017-06-18T04:21:45.120Z,816
2017-06-18T04:22:25.668Z,824
2017-06-18T04:23:06.212Z,836
2017-06-18T04:23:46.757Z,844
2017-06-18T04:24:27.287Z,848
2017-06-18T04:25:07.842Z,852
2017-06-18T04:25:48.385Z,864
2017-06-18T04:26:28.936Z,868
2017-06-18T04:27:09.482Z,872
2017-06-18T04:27:50.030Z,880
2017-06-18T04:28:30.558Z,884
2017-06-18T04:29:11.098Z,892
2017-06-18T04:29:51.648Z,896
2017-06-18T04:30:32.186Z,904
2017-06-18T04:31:12.732Z,908
2017-06-18T04:31:53.283Z,916
2017-06-18T04:32:33.829Z,920
2017-06-18T04:33:14.377Z,924
2017-06-18T04:33:54.939Z,932
2017-06-18T04:34:35.491Z,936
2017-06-18T04:35:16.042Z,940
2017-06-18T04:35:56.581Z,948
2017-06-18T04:36:37.126Z,944
2017-06-18T04:37:17.660Z,960
2017-06-18T04:37:58.217Z,964
2017-06-18T04:38:38.775Z,968
2017-06-18T04:39:19.313Z,976
2017-06-18T04:39:59.857Z,980
2017-06-18T04:40:40.406Z,984
2017-06-18T04:41:20.941Z,992
2017-06-18T04:42:01.485Z,1000
2017-06-18T04:42:42.036Z,1004
2017-06-18T04:43:22.571Z,1012
2017-06-18T04:44:03.106Z,1020
2017-06-18T04:44:43.648Z,1028
2017-06-18T04:45:24.196Z,1032
2017-06-18T04:46:04.737Z,1044
2017-06-18T04:46:45.283Z,1048
2017-06-18T04:47:25.825Z,1052
2017-06-18T04:48:06.364Z,1060
2017-06-18T04:48:46.922Z,1060
2017-06-18T04:49:27.462Z,1072
2017-06-18T04:50:08.002Z,1076
2017-06-18T04:50:48.543Z,1080
2017-06-18T04:51:29.072Z,1092
2017-06-18T04:52:09.601Z,1100
2017-06-18T04:52:50.153Z,1112
2017-06-18T04:53:30.699Z,1120
2017-06-18T04:54:11.254Z,1128
2017-06-18T04:54:51.817Z,1140
2017-06-18T04:55:32.355Z,1148
2017-06-18T04:56:12.907Z,1156
2017-06-18T04:56:53.480Z,1168
2017-06-18T04:57:34.019Z,1172
2017-06-18T04:58:14.561Z,1180
2017-06-18T04:58:55.114Z,1192
2017-06-18T04:59:35.665Z,1200
2017-06-18T05:00:16.214Z,1204
2017-06-18T05:00:56.761Z,1208
2017-06-18T05:01:37.305Z,1212
2017-06-18T05:02:17.853Z,1220
2017-06-18T05:02:58.394Z,1224
2017-06-18T05:03:38.935Z,1228
2017-06-18T05:04:19.497Z,1232
2017-06-18T05:05:00.059Z,1244
2017-06-18T05:05:40.608Z,1256
2017-06-18T05:06:21.159Z,1268
2017-06-18T05:07:01.693Z,1276
2017-06-18T05:07:42.237Z,1284
2017-06-18T05:08:22.799Z,1284
2017-06-18T05:09:03.305Z,1288
2017-06-18T05:09:43.843Z,1292
2017-06-18T05:10:24.439Z,1296
2017-06-18T05:11:04.988Z,1300
2017-06-18T05:11:45.528Z,1308
2017-06-18T05:12:26.059Z,1320
2017-06-18T05:13:06.605Z,1332
2017-06-18T05:13:47.147Z,1344
2017-06-18T05:14:27.685Z,1356
2017-06-18T05:15:08.230Z,1360
2017-06-18T05:15:48.776Z,1368
2017-06-18T05:16:29.319Z,1376
2017-06-18T05:17:09.863Z,1380
2017-06-18T05:17:50.414Z,1388
2017-06-18T05:18:30.954Z,1392
2017-06-18T05:19:11.497Z,1404
2017-06-18T05:19:52.046Z,1416
2017-06-18T05:20:32.588Z,1432
2017-06-18T05:21:13.164Z,1448
2017-06-18T05:21:53.665Z,1460
2017-06-18T05:22:34.202Z,1468
2017-06-18T05:23:14.753Z,1476
2017-06-18T05:23:55.298Z,1480
2017-06-18T05:24:35.846Z,1484
2017-06-18T05:25:16.396Z,1496
2017-06-18T05:25:56.942Z,1512
2017-06-18T05:26:37.497Z,1536
2017-06-18T05:27:18.052Z,1568
2017-06-18T05:27:58.598Z,1604
2017-06-18T05:28:39.146Z,1636
2017-06-18T05:29:19.683Z,1648
2017-06-18T05:30:00.237Z,1648
2017-06-18T05:30:40.901Z,1652
2017-06-18T05:31:21.454Z,1668
2017-06-18T05:32:02.003Z,1684
2017-06-18T05:32:42.549Z,1716
2017-06-18T05:33:23.090Z,1760
2017-06-18T05:34:03.634Z,1816
2017-06-18T05:34:44.183Z,1884
2017-06-18T05:35:24.729Z,1944
2017-06-18T05:36:05.268Z,1976
2017-06-18T05:36:45.806Z,2000
2017-06-18T05:37:26.351Z,2008
2017-06-18T05:38:06.881Z,2024
2017-06-18T05:38:47.410Z,2044
2017-06-18T05:39:27.956Z,2060
2017-06-18T05:40:08.510Z,2072
2017-06-18T05:40:49.053Z,2080
2017-06-18T05:41:29.610Z,2088
2017-06-18T05:42:10.151Z,2112
2017-06-18T05:42:50.720Z,2140
2017-06-18T05:43:31.254Z,2156
2017-06-18T05:44:11.805Z,2180
2017-06-18T05:44:52.348Z,2200
2017-06-18T05:45:32.888Z,2216
2017-06-18T05:46:13.431Z,2232
2017-06-18T05:46:53.967Z,2252
2017-06-18T05:47:34.512Z,2256
2017-06-18T05:48:15.046Z,2272
2017-06-18T05:48:55.587Z,2292
2017-06-18T05:49:36.130Z,2308
2017-06-18T05:50:16.671Z,2320
2017-06-18T05:50:57.220Z,2344
2017-06-18T05:51:37.763Z,2368
2017-06-18T05:52:18.389Z,2388
2017-06-18T05:52:59.854Z,2404
2017-06-18T05:53:41.156Z,2416
2017-06-18T05:54:21.694Z,2428
2017-06-18T05:55:02.252Z,2444
2017-06-18T05:55:42.790Z,2452
2017-06-18T05:56:23.334Z,2480
2017-06-18T05:57:03.866Z,2492
2017-06-18T05:57:44.393Z,2496
2017-06-18T05:58:24.931Z,2488
2017-06-18T05:59:05.477Z,2500
2017-06-18T05:59:46.026Z,2508
2017-06-18T06:00:26.571Z,2524
2017-06-18T06:01:07.120Z,2524
2017-06-18T06:01:47.675Z,2528
2017-06-18T06:02:28.225Z,2532
2017-06-18T06:03:08.775Z,2536
2017-06-18T06:03:49.326Z,2556
2017-06-18T06:04:29.871Z,2576
2017-06-18T06:05:10.414Z,2596
2017-06-18T06:05:50.982Z,2600
2017-06-18T06:06:31.532Z,2608
2017-06-18T06:07:12.083Z,2616
2017-06-18T06:07:52.636Z,2620
2017-06-18T06:08:33.190Z,2628
2017-06-18T06:09:13.734Z,2628
2017-06-18T06:09:54.292Z,2624
2017-06-18T06:10:34.838Z,2616
2017-06-18T06:11:15.400Z,2624
2017-06-18T06:11:55.944Z,2656
2017-06-18T06:12:36.491Z,2680
2017-06-18T06:13:17.045Z,2692
2017-06-18T06:13:57.569Z,2744
2017-06-18T06:14:38.122Z,2772
2017-06-18T06:15:18.670Z,2780
2017-06-18T06:15:59.207Z,2792
2017-06-18T06:16:39.759Z,2816
2017-06-18T06:17:20.297Z,2836
2017-06-18T06:18:00.835Z,2852
2017-06-18T06:18:41.364Z,2872
2017-06-18T06:19:21.899Z,2884
2017-06-18T06:20:02.453Z,2892
2017-06-18T06:20:42.998Z,2900
2017-06-18T06:21:23.550Z,2904
2017-06-18T06:22:04.099Z,2908
2017-06-18T06:22:44.648Z,2912
2017-06-18T06:23:25.202Z,2924
2017-06-18T06:24:05.746Z,2936
2017-06-18T06:24:46.286Z,2948
2017-06-18T06:25:26.837Z,2960
2017-06-18T06:26:07.377Z,2964
2017-06-18T06:26:47.920Z,2976
2017-06-18T06:27:28.461Z,2980
2017-06-18T06:28:09.009Z,2988
2017-06-18T06:28:49.548Z,2996
2017-06-18T06:29:30.092Z,2996
2017-06-18T06:30:10.635Z,3024
2017-06-18T06:30:51.183Z,3044
2017-06-18T06:31:31.725Z,3064
2017-06-18T06:32:12.270Z,3068
2017-06-18T06:32:52.819Z,3068
2017-06-18T06:33:33.366Z,3084
2017-06-18T06:34:13.904Z,3108
2017-06-18T06:34:54.454Z,3128
2017-06-18T06:35:35.004Z,3144
2017-06-18T06:36:15.562Z,3144
2017-06-18T06:36:56.113Z,2968
2017-06-18T06:37:36.673Z,2780
2017-06-18T06:38:17.243Z,3000
2017-06-18T06:38:57.789Z,3080
2017-06-18T06:39:38.342Z,3076
2017-06-18T06:40:18.887Z,3112
2017-06-18T06:40:59.435Z,3132
2017-06-18T06:41:39.984Z,3160
2017-06-18T06:42:20.529Z,3188
2017-06-18T06:43:01.075Z,3220
2017-06-18T06:43:41.629Z,3236
2017-06-18T06:44:22.324Z,3240
2017-06-18T06:45:02.871Z,3252
2017-06-18T06:45:43.408Z,3252
2017-06-18T06:46:23.949Z,3224
2017-06-18T06:47:04.487Z,3228
2017-06-18T06:47:45.037Z,3252
2017-06-18T06:48:25.586Z,3264
2017-06-18T06:49:06.200Z,3280
2017-06-18T06:49:46.748Z,3272
2017-06-18T06:50:27.280Z,3292
2017-06-18T06:51:07.822Z,3304
2017-06-18T06:51:48.382Z,3284
2017-06-18T06:52:28.904Z,3292
2017-06-18T06:53:09.460Z,3232
2017-06-18T06:53:50.001Z,3168
2017-06-18T06:54:30.546Z,3192
2017-06-18T06:55:11.078Z,3244
2017-06-18T06:55:51.615Z,3372
2017-06-18T06:56:32.180Z,3420
2017-06-18T06:57:12.715Z,3300
2017-06-18T06:57:53.241Z,3368
2017-06-18T06:58:33.791Z,3484
2017-06-18T06:59:14.338Z,3500
2017-06-18T06:59:54.883Z,3532
2017-06-18T07:00:35.428Z,3540
2017-06-18T07:01:15.971Z,3536
2017-06-18T07:01:56.512Z,3536
2017-06-18T07:02:37.067Z,3548
2017-06-18T07:03:17.611Z,3552
2017-06-18T07:03:58.157Z,3556
2017-06-18T07:04:38.710Z,3568
2017-06-18T07:05:19.259Z,3580
2017-06-18T07:05:59.812Z,3588
2017-06-18T07:06:40.359Z,3584
2017-06-18T07:07:20.911Z,3588
2017-06-18T07:08:01.467Z,3584
2017-06-18T07:08:42.018Z,3608
2017-06-18T07:09:22.574Z,3616
2017-06-18T07:10:03.118Z,3620
2017-06-18T07:10:43.663Z,3656
2017-06-18T07:11:24.220Z,3676
2017-06-18T07:12:04.767Z,3696
2017-06-18T07:12:45.337Z,3728
2017-06-18T07:13:25.887Z,3756
2017-06-18T07:14:06.431Z,3784
2017-06-18T07:14:46.982Z,3788
2017-06-18T07:15:27.530Z,3816
2017-06-18T07:16:08.083Z,3856
2017-06-18T07:16:48.625Z,3912
2017-06-18T07:17:29.171Z,3972
2017-06-18T07:18:09.713Z,4032
2017-06-18T07:18:50.270Z,4012
2017-06-18T07:19:30.826Z,4012
2017-06-18T07:20:11.380Z,4384
2017-06-18T07:20:51.931Z,4496
2017-06-18T07:21:32.485Z,4512
2017-06-18T07:22:13.037Z,4512
2017-06-18T07:22:53.624Z,4540
2017-06-18T07:23:34.177Z,4560
2017-06-18T07:24:14.710Z,4488
2017-06-18T07:24:55.243Z,4372
2017-06-18T07:25:35.789Z,4328
2017-06-18T07:26:16.335Z,4356
2017-06-18T07:26:56.881Z,4360
2017-06-18T07:27:37.432Z,4348
2017-06-18T07:28:17.984Z,4532
2017-06-18T07:28:58.550Z,4696
2017-06-18T07:29:39.087Z,4808
2017-06-18T07:30:19.645Z,5012
2017-06-18T07:31:00.189Z,5152
2017-06-18T07:31:40.745Z,5228
2017-06-18T07:32:21.298Z,5288
2017-06-18T07:33:01.843Z,5300
2017-06-18T07:33:42.873Z,5308
2017-06-18T07:34:23.608Z,5264
2017-06-18T07:35:04.322Z,5336
2017-06-18T07:35:44.886Z,5420
2017-06-18T07:36:25.460Z,5460
2017-06-18T07:37:06.334Z,5748
2017-06-18T07:37:47.418Z,6048
2017-06-18T07:38:28.623Z,6184
2017-06-18T07:39:09.229Z,6100
2017-06-18T07:39:50.107Z,5944
2017-06-18T07:40:30.814Z,6160
2017-06-18T07:41:11.651Z,6648
2017-06-18T07:41:52.203Z,7256
2017-06-18T07:42:32.736Z,7656
2017-06-18T07:43:13.290Z,7832
2017-06-18T07:43:53.835Z,7720
2017-06-18T07:44:34.413Z,7644
2017-06-18T07:45:14.953Z,7852
2017-06-18T07:45:55.497Z,7892
2017-06-18T07:46:36.048Z,7704
2017-06-18T07:47:16.599Z,7280
2017-06-18T07:47:57.155Z,5496
2017-06-18T07:48:37.738Z,5172
2017-06-18T07:49:18.262Z,4996
2017-06-18T07:49:58.806Z,5244
2017-06-18T07:50:39.354Z,6812
2017-06-18T07:51:19.910Z,7108
2017-06-18T07:52:00.462Z,7116
2017-06-18T07:52:41.016Z,6904
2017-06-18T07:53:21.558Z,6412
2017-06-18T07:54:02.108Z,6232
2017-06-18T07:54:42.643Z,6304
2017-06-18T07:55:23.186Z,6296
2017-06-18T07:56:03.737Z,6344
2017-06-18T07:56:44.643Z,5548
2017-06-18T07:57:25.661Z,6844
2017-06-18T07:58:06.781Z,6744
2017-06-18T07:58:47.558Z,6220
2017-06-18T07:59:28.115Z,6468
2017-06-18T08:00:08.886Z,6924
2017-06-18T08:00:49.424Z,8236
2017-06-18T08:03:25.859Z,8544
2017-06-18T08:04:06.402Z,8596
2017-06-18T08:04:47.372Z,8552
2017-06-18T08:05:28.452Z,8360
2017-06-18T08:06:09.004Z,8328
2017-06-18T08:06:49.569Z,8376
2017-06-18T08:07:30.111Z,8600
2017-06-18T08:08:10.670Z,9076
2017-06-18T08:08:51.216Z,12704
2017-06-18T08:09:31.775Z,31392
2017-06-18T08:10:12.327Z,50048
2017-06-18T08:10:52.873Z,59136
2017-06-18T08:11:33.426Z,62528
2017-06-18T08:12:13.991Z,65824
2017-06-18T08:12:54.572Z,65440
2017-06-18T08:13:35.122Z,64448
2017-06-18T08:14:15.663Z,63584
2017-06-18T08:14:56.376Z,45440
2017-06-18T08:15:37.053Z,62592
2017-06-18T08:16:17.824Z,34976
2017-06-18T08:16:58.765Z,61568
2017-06-18T08:17:39.512Z,67040
2017-06-18T08:18:20.259Z,68704
2017-06-18T08:19:01.254Z,69760
2017-06-18T08:19:41.814Z,9784
2017-06-18T08:20:22.362Z,7756
2017-06-18T08:21:02.932Z,8040
2017-06-18T08:21:43.460Z,9032
2017-06-18T08:22:24.002Z,15164
2017-06-18T08:23:04.655Z,28960
2017-06-18T08:23:45.194Z,9640
2017-06-18T08:24:25.783Z,7872
2017-06-18T08:25:06.669Z,7868
2017-06-18T08:25:47.215Z,8160
2017-06-18T08:26:27.948Z,8780
2017-06-18T08:27:08.495Z,10256
2017-06-18T08:27:49.039Z,11860
2017-06-18T08:28:29.984Z,17760
2017-06-18T08:29:10.540Z,61472
2017-06-18T08:29:51.320Z,64128
2017-06-18T08:30:31.873Z,72288
2017-06-18T08:31:12.668Z,71392
2017-06-18T08:31:53.489Z,10364
2017-06-18T08:32:34.238Z,6340
2017-06-18T08:33:15.419Z,5544
2017-06-18T08:33:55.981Z,5360
2017-06-18T08:34:36.541Z,5196
2017-06-18T08:35:17.095Z,5600
2017-06-18T08:35:57.653Z,5660
2017-06-18T08:36:38.212Z,5344
2017-06-18T08:37:18.764Z,5484
2017-06-18T08:37:59.316Z,5508
2017-06-18T08:38:39.864Z,5620
2017-06-18T08:39:20.419Z,5956
2017-06-18T08:40:00.964Z,6472
2017-06-18T08:40:41.529Z,7220
2017-06-18T08:41:22.080Z,7016
2017-06-18T08:42:02.624Z,6856
2017-06-18T08:42:43.193Z,7088
2017-06-18T08:43:23.748Z,7828
2017-06-18T08:44:04.302Z,8376
2017-06-18T08:44:44.865Z,8336
2017-06-18T08:45:25.399Z,7688
2017-06-18T08:46:05.944Z,7136
2017-06-18T08:46:46.488Z,6520
2017-06-18T08:47:27.031Z,6392
2017-06-18T08:48:07.585Z,6512
2017-06-18T08:48:48.152Z,7148
2017-06-18T08:49:28.703Z,8060
2017-06-18T08:50:09.258Z,9728
2017-06-18T08:50:49.805Z,11904
2017-06-18T08:51:30.358Z,13080
2017-06-18T08:52:10.908Z,10800
2017-06-18T08:52:51.460Z,13704
2017-06-18T08:53:32.013Z,14928
2017-06-18T08:54:12.560Z,17120
2017-06-18T08:54:53.107Z,17088
2017-06-18T08:55:33.672Z,13676
2017-06-18T08:56:14.202Z,12884
2017-06-18T08:56:54.754Z,11272
2017-06-18T08:57:35.325Z,9820
2017-06-18T08:58:15.882Z,9232
2017-06-18T08:58:56.436Z,8916
2017-06-18T08:59:36.976Z,9584
2017-06-18T09:00:17.522Z,10976
2017-06-18T09:00:58.073Z,11872
2017-06-18T09:01:38.620Z,12416
2017-06-18T09:02:19.171Z,11472
2017-06-18T09:02:59.803Z,11180
2017-06-18T09:03:40.354Z,10876
2017-06-18T09:04:20.904Z,10292
2017-06-18T09:05:01.456Z,10152
2017-06-18T09:05:42.012Z,10488
2017-06-18T09:06:22.564Z,12312
2017-06-18T09:07:03.111Z,12656
2017-06-18T09:07:43.659Z,13240
2017-06-18T09:08:24.196Z,12752
2017-06-18T09:09:04.736Z,13096
2017-06-18T09:09:45.281Z,13380
2017-06-18T09:10:25.833Z,13640
2017-06-18T09:11:06.383Z,13692
2017-06-18T09:11:46.935Z,13420
2017-06-18T09:12:27.485Z,12892
2017-06-18T09:13:08.026Z,12596
2017-06-18T09:13:48.575Z,12816
2017-06-18T09:14:29.110Z,11720
2017-06-18T09:15:09.659Z,11344
2017-06-18T09:15:50.204Z,11444
2017-06-18T09:16:30.750Z,11712
2017-06-18T09:17:11.310Z,12264
2017-06-18T09:17:51.861Z,12700
2017-06-18T09:18:32.413Z,13192
2017-06-18T09:19:12.957Z,13872
2017-06-18T09:19:53.509Z,14412
2017-06-18T09:20:34.064Z,15092
2017-06-18T09:21:14.616Z,15796
2017-06-18T09:21:55.156Z,16036
2017-06-18T09:22:35.718Z,15696
2017-06-18T09:23:16.257Z,18272
2017-06-18T09:23:56.806Z,17244